Bookmark and Share
Track history (hours):
 

Oceanographic research ship Johan Ruud (Norway)

Detailed information on ship capabilities available from University of Delaware's Ocean Information Center.

Last reported at 2014-Apr-23 12:13 UTC. Time now 2014-Apr-24 21:54 UTC.
Position N 70°43' E 023°31'.

Length 30 m; draft 4.5 m.

Type: Fishing. MMSI: 257265000.

NotesDate/timePositionNaut miles runAvg speedWind from/ knotsBaromVisibWave heightAir tempDewpointWater temp
2014-Apr-23 12:13N 70°43' E 023°31'8 9.8
2014-Apr-23 11:25N 70°37' E 023°15'101 7.8
2014-Apr-22 22:33N 69°43' E 019°04'4 4.1
2014-Apr-22 21:33N 69°39' E 018°58'0 0.0
2014-Apr-22 20:33N 69°39' E 018°58'0 0.0
2014-Apr-22 19:33N 69°39' E 018°58'0 0.0
2014-Apr-22 18:33N 69°39' E 018°58'0 0.0
2014-Apr-22 17:33N 69°39' E 018°58'0 0.0
2014-Apr-22 16:33N 69°39' E 018°58'0 0.0
2014-Apr-22 15:33N 69°39' E 018°58'1 1.3
2014-Apr-22 14:33N 69°38' E 018°57'3 0.4
2014-Apr-22 07:18N 69°35' E 018°54'5 5.7
2014-Apr-22 06:30N 69°39' E 018°58'0 0.0
2014-Apr-22 05:33N 69°39' E 018°58'0 0.0
2014-Apr-22 04:33N 69°39' E 018°58'0 0.0
2014-Apr-22 03:33N 69°39' E 018°58'0 0.0
2014-Apr-22 02:27N 69°39' E 018°58'0 0.0
2014-Apr-22 01:33N 69°39' E 018°58'0 0.0
2014-Apr-22 00:33N 69°39' E 018°58'0 0.0
2014-Apr-21 23:33N 69°39' E 018°58'0 0.0
2014-Apr-21 22:30N 69°39' E 018°58'0 0.0
2014-Apr-21 21:33N 69°39' E 018°58'0 0.0
2014-Apr-21 20:33N 69°39' E 018°58'0 0.0
2014-Apr-21 19:33N 69°39' E 018°58'0 0.0
2014-Apr-21 18:33N 69°39' E 018°58'0 0.0
2014-Apr-21 17:33N 69°39' E 018°58'0 0.0
2014-Apr-21 16:33N 69°39' E 018°58'0 0.0
2014-Apr-21 15:33N 69°39' E 018°58'0 0.0
2014-Apr-21 14:33N 69°39' E 018°58'0 0.0
2014-Apr-21 13:24N 69°39' E 018°58'0 0.0
2014-Apr-21 12:33N 69°39' E 018°58'0 0.0
2014-Apr-21 11:18N 69°39' E 018°58'0 0.0
2014-Apr-21 10:33N 69°39' E 018°58'0 0.0
2014-Apr-21 09:33N 69°39' E 018°58'0 0.0
2014-Apr-21 08:33N 69°39' E 018°58'0 0.0
2014-Apr-21 07:33N 69°39' E 018°58'0 0.0
2014-Apr-21 06:33N 69°39' E 018°58'0 0.0
2014-Apr-21 05:24N 69°39' E 018°58'0 0.0
2014-Apr-21 04:33N 69°39' E 018°58'0 0.0
2014-Apr-21 03:33N 69°39' E 018°58'0 0.0
2014-Apr-21 02:30N 69°39' E 018°58'0 0.0
2014-Apr-21 01:30N 69°39' E 018°58'0 0.0
2014-Apr-21 00:33N 69°39' E 018°58'0 0.0
2014-Apr-20 23:33N 69°39' E 018°58'0 0.0
2014-Apr-20 22:33N 69°39' E 018°58'0 0.0
2014-Apr-20 21:33N 69°39' E 018°58'0 0.0
2014-Apr-20 20:30N 69°39' E 018°58'0 0.0
2014-Apr-20 19:33N 69°39' E 018°58'0 0.0
2014-Apr-20 18:33N 69°39' E 018°58'0 0.0
2014-Apr-20 17:33N 69°39' E 018°58'0 0.0
2014-Apr-20 16:33N 69°39' E 018°58'0 0.0
2014-Apr-20 15:33N 69°39' E 018°58'0 0.0
2014-Apr-20 14:33N 69°39' E 018°58'0 0.0
2014-Apr-20 13:27N 69°39' E 018°58'0 0.0
2014-Apr-20 12:33N 69°39' E 018°58'0 0.0
2014-Apr-20 11:27N 69°39' E 018°58'0 0.0
2014-Apr-20 10:33N 69°39' E 018°58'0 0.0
2014-Apr-20 09:33N 69°39' E 018°58'0 0.0
2014-Apr-20 08:33N 69°39' E 018°58'0 0.0
2014-Apr-20 07:33N 69°39' E 018°58'0 0.0
2014-Apr-20 06:33N 69°39' E 018°58'0 0.0
2014-Apr-20 05:33N 69°39' E 018°58'0 0.0
2014-Apr-20 04:33N 69°39' E 018°58'0 0.0
2014-Apr-20 03:33N 69°39' E 018°58'0 0.0
2014-Apr-20 02:33N 69°39' E 018°58'0 0.0
2014-Apr-20 01:33N 69°39' E 018°58'0 0.0
2014-Apr-20 00:33N 69°39' E 018°58'0 0.0
2014-Apr-19 23:33N 69°39' E 018°58'0 0.0
2014-Apr-19 22:33N 69°39' E 018°58'0 0.0
2014-Apr-19 21:30N 69°39' E 018°58'0 0.0
2014-Apr-19 20:33N 69°39' E 018°58'0 0.0
2014-Apr-19 19:33N 69°39' E 018°58'0 0.0
2014-Apr-19 18:33N 69°39' E 018°58'0 0.0
2014-Apr-19 17:27N 69°39' E 018°58'0 0.0
2014-Apr-19 16:27N 69°39' E 018°58'0 0.0
2014-Apr-19 15:30N 69°39' E 018°58'0 0.0
2014-Apr-19 14:33N 69°39' E 018°58'0 0.0
2014-Apr-19 13:30N 69°39' E 018°58'0 0.0
2014-Apr-19 12:30N 69°39' E 018°58'0 0.0
2014-Apr-19 11:33N 69°39' E 018°58'0 0.0
2014-Apr-19 10:33N 69°39' E 018°58'0 0.0
2014-Apr-19 09:27N 69°39' E 018°58'0 0.0
2014-Apr-19 07:30N 69°39' E 018°58'0 0.0
2014-Apr-19 06:33N 69°39' E 018°58'0 0.0
2014-Apr-19 05:33N 69°39' E 018°58'0 0.0
2014-Apr-19 04:33N 69°39' E 018°58'0 0.0
2014-Apr-19 03:33N 69°39' E 018°58'0 0.0
2014-Apr-19 02:33N 69°39' E 018°58'0 0.0
2014-Apr-19 01:27N 69°39' E 018°58'0 0.0
2014-Apr-19 00:30N 69°39' E 018°58'0 0.0
2014-Apr-18 23:33N 69°39' E 018°58'0 0.0
2014-Apr-18 22:33N 69°39' E 018°58'0 0.0
2014-Apr-18 21:33N 69°39' E 018°58'0 0.0
2014-Apr-18 20:27N 69°39' E 018°58'0 0.0
2014-Apr-18 19:33N 69°39' E 018°58'0 0.0
2014-Apr-18 18:33N 69°39' E 018°58'0 0.0
2014-Apr-18 17:33N 69°39' E 018°58'0 0.0
2014-Apr-18 16:33N 69°39' E 018°58'0 0.0
2014-Apr-18 15:30N 69°39' E 018°58'0 0.0
2014-Apr-18 14:33N 69°39' E 018°58'0 0.0
2014-Apr-18 13:33N 69°39' E 018°58'0 0.0
2014-Apr-18 12:33N 69°39' E 018°58'0 0.0
2014-Apr-18 11:33N 69°39' E 018°58'0 0.0
2014-Apr-18 10:33N 69°39' E 018°58'0 0.0
2014-Apr-18 09:15N 69°39' E 018°58'0 0.0
2014-Apr-18 08:33N 69°39' E 018°58'0 0.0
2014-Apr-18 07:33N 69°39' E 018°58'0 0.0
2014-Apr-18 06:30N 69°39' E 018°58'0 0.0
2014-Apr-18 05:30N 69°39' E 018°58'0 0.0
2014-Apr-18 04:33N 69°39' E 018°58'0 0.0
2014-Apr-18 03:27N 69°39' E 018°58'0 0.0
2014-Apr-18 02:33N 69°39' E 018°58'0 0.0
2014-Apr-18 01:27N 69°39' E 018°58'0 0.0
2014-Apr-18 00:33N 69°39' E 018°58'0 0.0
2014-Apr-17 23:33N 69°39' E 018°58'0 0.0
2014-Apr-17 22:33N 69°39' E 018°58'0 0.0
2014-Apr-17 21:30N 69°39' E 018°58'0 0.0
2014-Apr-17 20:30N 69°39' E 018°58'0 0.0
2014-Apr-17 19:30N 69°39' E 018°58'0 0.0
2014-Apr-17 18:21N 69°39' E 018°58'0 0.0
2014-Apr-17 17:33N 69°39' E 018°58'0 0.0
2014-Apr-17 16:33N 69°39' E 018°58'0 0.0
2014-Apr-17 15:32N 69°39' E 018°58'0 0.0
2014-Apr-17 14:33N 69°39' E 018°58'0 0.0
2014-Apr-17 13:32N 69°39' E 018°58'0 0.0
2014-Apr-17 12:33N 69°39' E 018°58'0 0.0
2014-Apr-17 11:30N 69°39' E 018°58'0 0.0
2014-Apr-17 10:29N 69°39' E 018°58'0 0.0
2014-Apr-17 09:32N 69°39' E 018°58'0 0.0
2014-Apr-17 08:33N 69°39' E 018°58'0 0.0
2014-Apr-17 07:29N 69°39' E 018°58'0 0.0
2014-Apr-17 06:29N 69°39' E 018°58'0 0.0
2014-Apr-17 05:32N 69°39' E 018°58'0 0.0
2014-Apr-17 04:29N 69°39' E 018°58'0 0.0
2014-Apr-17 03:32N 69°39' E 018°58'0 0.0
2014-Apr-17 02:32N 69°39' E 018°58'0 0.0
2014-Apr-17 01:32N 69°39' E 018°58'0 0.0
2014-Apr-17 00:32N 69°39' E 018°58'0 0.0
2014-Apr-16 23:32N 69°39' E 018°58'0 0.0
2014-Apr-16 22:32N 69°39' E 018°58'0 0.0
2014-Apr-16 21:32N 69°39' E 018°58'0 0.0
2014-Apr-16 20:32N 69°39' E 018°58'0 0.0
2014-Apr-16 19:26N 69°39' E 018°58'0 0.0
2014-Apr-16 18:29N 69°39' E 018°58'0 0.0
2014-Apr-16 17:32N 69°39' E 018°58'0 0.0
2014-Apr-16 16:32N 69°39' E 018°58'0 0.0
2014-Apr-16 15:32N 69°39' E 018°58'0 0.0
2014-Apr-16 14:32N 69°39' E 018°58'0 0.0
2014-Apr-16 13:23N 69°39' E 018°58'0 0.0
2014-Apr-16 12:29N 69°39' E 018°58'0 0.0
2014-Apr-16 11:29N 69°39' E 018°58'0 0.0
2014-Apr-16 10:26N 69°39' E 018°58'0 0.0
2014-Apr-16 09:29N 69°39' E 018°58'0 0.0
2014-Apr-16 08:32N 69°39' E 018°58'0 0.0
2014-Apr-16 07:14N 69°39' E 018°58'0 0.0
2014-Apr-16 06:32N 69°39' E 018°58'0 0.0
2014-Apr-16 05:32N 69°39' E 018°58'0 0.0
2014-Apr-16 04:29N 69°39' E 018°58'0 0.0
2014-Apr-16 03:32N 69°39' E 018°58'0 0.0
2014-Apr-16 02:32N 69°39' E 018°58'0 0.0
2014-Apr-16 01:29N 69°39' E 018°58'0 0.0
2014-Apr-16 00:32N 69°39' E 018°58'0 0.0
2014-Apr-15 23:23N 69°39' E 018°58'0 0.0
2014-Apr-15 22:32N 69°39' E 018°58'0 0.0
2014-Apr-15 21:32N 69°39' E 018°58'0 0.0
2014-Apr-15 20:29N 69°39' E 018°58'0 0.0
2014-Apr-15 19:32N 69°39' E 018°58'0 0.0
2014-Apr-15 18:32N 69°39' E 018°58'0 0.0
2014-Apr-15 17:29N 69°39' E 018°58'0 0.0
2014-Apr-15 16:32N 69°39' E 018°58'0 0.0
2014-Apr-15 15:32N 69°39' E 018°58'0 0.0
2014-Apr-15 12:30N 69°39' E 018°58'0 0.0
2014-Apr-15 11:33N 69°39' E 018°58'0 0.0
2014-Apr-15 10:33N 69°39' E 018°58'0 0.0
2014-Apr-15 09:30N 69°39' E 018°58'0 0.0
2014-Apr-15 08:30N 69°39' E 018°58'0 0.0
2014-Apr-15 07:33N 69°39' E 018°58'0 0.0
2014-Apr-15 06:30N 69°39' E 018°58'0 0.0
2014-Apr-15 05:33N 69°39' E 018°58'0 0.0
2014-Apr-15 03:33N 69°39' E 018°58'0 0.0
2014-Apr-15 02:33N 69°39' E 018°58'0 0.0
2014-Apr-15 01:30N 69°39' E 018°58'0 0.0
2014-Apr-15 00:33N 69°39' E 018°58'0 0.0
2014-Apr-14 23:33N 69°39' E 018°58'0 0.0
2014-Apr-14 22:30N 69°39' E 018°58'0 0.0
2014-Apr-14 21:33N 69°39' E 018°58'0 0.0
2014-Apr-14 20:33N 69°39' E 018°58'0 0.0
2014-Apr-14 19:30N 69°39' E 018°58'0 0.0
2014-Apr-14 18:33N 69°39' E 018°58'0 0.0
2014-Apr-14 17:33N 69°39' E 018°58'0 0.0
2014-Apr-14 16:33N 69°39' E 018°58'0 0.0
2014-Apr-14 15:33N 69°39' E 018°58'0 0.0
2014-Apr-14 14:33N 69°39' E 018°58'0 0.0
2014-Apr-14 13:33N 69°39' E 018°58'0 0.0
2014-Apr-14 11:32N 69°39' E 018°58'0 0.0
2014-Apr-14 10:32N 69°39' E 018°58'0 0.0
2014-Apr-14 09:32N 69°39' E 018°58'0 0.0
2014-Apr-14 08:29N 69°39' E 018°58'0 0.0
2014-Apr-14 07:32N 69°39' E 018°58'0 0.0
2014-Apr-14 06:32N 69°39' E 018°58'0 0.0
2014-Apr-14 05:32N 69°39' E 018°58'0 0.0
2014-Apr-13 22:32N 69°39' E 018°58'0 0.0
2014-Apr-13 21:32N 69°39' E 018°58'0 0.0
2014-Apr-13 20:32N 69°39' E 018°58'0 0.0
2014-Apr-13 19:32N 69°39' E 018°58'0 0.0
2014-Apr-13 18:32N 69°39' E 018°58'0 0.0
2014-Apr-13 17:32N 69°39' E 018°58'0 0.0
2014-Apr-13 16:32N 69°39' E 018°58'0 0.0
2014-Apr-13 15:32N 69°39' E 018°58'0 0.0
2014-Apr-13 14:32N 69°39' E 018°58'0 0.0
2014-Apr-13 13:32N 69°39' E 018°58'0 0.0
2014-Apr-13 12:29N 69°39' E 018°58'  

Dump ship's entire track history

sailing weather and tide predictions

Johan Ruud — LEDR — position and weather